createdAt,value
2023-05-25T00:01:07.923Z,98505.50
2023-05-25T00:03:40.500Z,98505.72
2023-05-25T00:06:10.439Z,98505.41
2023-05-25T00:08:40.492Z,98509.88
2023-05-25T00:11:09.656Z,98508.16
2023-05-25T00:13:39.655Z,98508.16
2023-05-25T00:16:08.833Z,98513.22
2023-05-25T00:18:38.057Z,98508.97
2023-05-25T00:21:07.407Z,98515.63
2023-05-25T00:23:36.542Z,98506.09
2023-05-25T00:26:05.793Z,98509.78
2023-05-25T00:28:34.901Z,98504.19
2023-05-25T00:31:04.090Z,98513.13
2023-05-25T00:33:33.195Z,98517.25
2023-05-25T00:36:03.468Z,98518.84
2023-05-25T00:38:32.773Z,98521.25
2023-05-25T00:41:01.937Z,98517.59
2023-05-25T00:43:31.131Z,98516.34
2023-05-25T00:46:02.406Z,98518.16
2023-05-25T00:48:31.997Z,98517.47
2023-05-25T00:51:01.743Z,98523.09
2023-05-25T00:53:33.865Z,98514.84
2023-05-25T00:56:10.988Z,98523.09
2023-05-25T00:58:43.507Z,98521.25
2023-05-25T01:01:15.282Z,98526.31
2023-05-25T01:03:54.161Z,98525.50
2023-05-25T01:06:23.766Z,98525.28
2023-05-25T01:09:00.396Z,98533.41
2023-05-25T01:11:36.305Z,98539.47
2023-05-25T01:14:06.344Z,98535.47
2023-05-25T01:16:37.851Z,98540.50
2023-05-25T01:19:07.095Z,98536.03
2023-05-25T01:21:38.079Z,98539.72
2023-05-25T01:24:17.686Z,98536.50
2023-05-25T01:26:53.150Z,98541.56
2023-05-25T01:29:25.071Z,98538.00
2023-05-25T01:31:56.319Z,98538.47
2023-05-25T01:34:26.863Z,98544.09
2023-05-25T01:36:56.719Z,98535.63
2023-05-25T01:39:26.132Z,98545.47
2023-05-25T01:41:55.285Z,98543.75
2023-05-25T01:44:26.204Z,98545.13
2023-05-25T01:47:04.056Z,98543.28
2023-05-25T01:49:58.574Z,98544.00
2023-05-25T01:52:34.349Z,98540.78
2023-05-25T01:55:08.108Z,98538.47
2023-05-25T01:57:42.829Z,98538.25
2023-05-25T02:00:16.355Z,98530.00
2023-05-25T02:02:47.242Z,98529.88
2023-05-25T02:05:18.976Z,98534.13
2023-05-25T02:07:48.155Z,98535.16
2023-05-25T02:10:17.335Z,98532.75
2023-05-25T02:12:46.756Z,98533.69
2023-05-25T02:15:16.624Z,98532.66
2023-05-25T02:17:45.823Z,98537.13
2023-05-25T02:20:36.948Z,98532.88
2023-05-25T02:23:06.326Z,98540.78
2023-05-25T02:25:35.489Z,98540.19
2023-05-25T02:28:05.137Z,98537.22
2023-05-25T02:30:34.675Z,98537.75
2023-05-25T02:33:03.830Z,98538.09
2023-05-25T02:35:33.513Z,98540.03
2023-05-25T02:38:03.085Z,98537.72
2023-05-25T02:40:32.289Z,98543.06
2023-05-25T02:43:01.417Z,98535.63
2023-05-25T02:45:31.042Z,98545.34
2023-05-25T02:48:00.243Z,98549.91
2023-05-25T02:50:30.453Z,98551.59
2023-05-25T02:53:03.426Z,98561.63
2023-05-25T02:55:33.360Z,98555.31
2023-05-25T02:58:02.915Z,98559.47
2023-05-25T03:00:50.850Z,98552.81
2023-05-25T03:03:20.450Z,98558.69
2023-05-25T03:05:49.642Z,98560.56
2023-05-25T03:08:19.386Z,98553.38
2023-05-25T03:10:48.588Z,98561.56
2023-05-25T03:13:18.972Z,98557.22
2023-05-25T03:15:48.146Z,98554.16
2023-05-25T03:18:18.061Z,98555.66
2023-05-25T03:20:47.839Z,98561.41
2023-05-25T03:23:17.017Z,98567.22
2023-05-25T03:25:46.821Z,98559.66
2023-05-25T03:28:16.346Z,98575.31
2023-05-25T03:30:46.195Z,98575.63
2023-05-25T03:33:15.724Z,98577.25
2023-05-25T03:35:48.937Z,98577.25
2023-05-25T03:38:18.151Z,98580.00
2023-05-25T03:40:47.952Z,98577.72
2023-05-25T03:43:18.107Z,98580.16
2023-05-25T03:45:49.974Z,98575.31
2023-05-25T03:48:19.300Z,98585.25
2023-05-25T03:50:49.208Z,98590.53
2023-05-25T03:53:18.348Z,98592.56
2023-05-25T03:55:47.542Z,98594.88
2023-05-25T03:58:18.445Z,98595.72
2023-05-25T04:00:52.633Z,98603.53
2023-05-25T04:03:22.146Z,98603.47
2023-05-25T04:05:51.359Z,98600.50
2023-05-25T04:08:20.477Z,98598.88
2023-05-25T04:10:49.502Z,98599.44
2023-05-25T04:13:18.558Z,98592.59
2023-05-25T04:15:47.758Z,98595.22
2023-05-25T04:18:20.772Z,98604.00
2023-05-25T04:20:50.952Z,98612.81
2023-05-25T04:23:23.493Z,98608.09
2023-05-25T04:25:54.923Z,98613.56
2023-05-25T04:28:24.676Z,98620.72
2023-05-25T04:31:12.922Z,98612.09
2023-05-25T04:34:05.221Z,98612.31
2023-05-25T04:36:43.300Z,98614.28
2023-05-25T04:39:13.776Z,98615.50
2023-05-25T04:41:48.550Z,98616.22
2023-05-25T04:44:17.841Z,98619.69
2023-05-25T04:46:50.610Z,98617.09
2023-05-25T04:49:25.088Z,98612.03
2023-05-25T04:51:54.595Z,98624.53
2023-05-25T04:54:23.821Z,98617.88
2023-05-25T04:56:53.327Z,98615.72
2023-05-25T04:59:22.713Z,98619.94
2023-05-25T05:01:51.932Z,98622.72
2023-05-25T05:04:21.192Z,98619.97
2023-05-25T05:06:51.502Z,98613.16
2023-05-25T05:09:22.962Z,98614.81
2023-05-25T05:11:52.133Z,98613.84
2023-05-25T05:14:21.506Z,98610.66
2023-05-25T05:16:51.531Z,98615.56
2023-05-25T05:19:21.012Z,98623.03
2023-05-25T05:21:50.172Z,98622.06
2023-05-25T05:24:20.075Z,98619.13
2023-05-25T05:29:28.272Z,98621.50
2023-05-25T05:31:57.585Z,98618.78
2023-05-25T05:34:27.594Z,98617.34
2023-05-25T05:39:17.965Z,98625.94
2023-05-25T05:41:47.729Z,98622.94
2023-05-25T05:44:16.955Z,98625.63
2023-05-25T05:46:46.242Z,98625.88
2023-05-25T05:49:15.517Z,98624.50
2023-05-25T05:51:44.835Z,98620.38
2023-05-25T05:54:14.014Z,98623.19
2023-05-25T05:56:43.174Z,98621.16
2023-05-25T05:59:12.343Z,98626.09
2023-05-25T06:01:42.722Z,98623.00
2023-05-25T06:04:12.237Z,98631.81
2023-05-25T06:06:43.131Z,98631.75
2023-05-25T06:09:12.764Z,98629.31
2023-05-25T06:11:42.259Z,98628.34
2023-05-25T06:14:12.224Z,98619.91
2023-05-25T06:16:43.830Z,98620.53
2023-05-25T06:19:14.583Z,98623.81
2023-05-25T06:21:44.416Z,98626.56
2023-05-25T06:24:15.288Z,98625.25
2023-05-25T06:26:44.420Z,98623.41
2023-05-25T06:29:16.683Z,98625.75
2023-05-25T06:31:46.249Z,98620.47
2023-05-25T06:34:15.540Z,98625.97
2023-05-25T06:36:45.027Z,98626.78
2023-05-25T06:39:15.460Z,98628.47
2023-05-25T06:41:45.437Z,98634.06
2023-05-25T06:44:19.021Z,98623.78
2023-05-25T06:46:49.462Z,98623.06
2023-05-25T06:49:18.714Z,98625.28
2023-05-25T06:51:49.055Z,98617.66
2023-05-25T06:54:19.665Z,98613.75
2023-05-25T06:56:48.889Z,98613.31
2023-05-25T06:59:18.487Z,98611.53
2023-05-25T07:01:47.777Z,98616.84
2023-05-25T07:04:17.021Z,98620.88
2023-05-25T07:06:46.241Z,98617.72
2023-05-25T07:09:15.980Z,98613.28
2023-05-25T07:11:45.421Z,98615.19
2023-05-25T07:14:14.534Z,98612.09
2023-05-25T07:16:45.239Z,98614.78
2023-05-25T07:19:14.646Z,98618.47
2023-05-25T07:21:43.939Z,98615.41
2023-05-25T07:24:13.096Z,98613.88
2023-05-25T07:26:44.505Z,98617.44
2023-05-25T07:29:13.682Z,98606.84
2023-05-25T07:31:43.020Z,98610.88
2023-05-25T07:34:12.144Z,98607.25
2023-05-25T07:36:41.311Z,98603.63
2023-05-25T07:39:11.402Z,98603.41
2023-05-25T07:41:40.606Z,98603.16
2023-05-25T07:44:09.785Z,98601.88
2023-05-25T07:46:39.062Z,98602.72
2023-05-25T07:49:13.129Z,98598.78
2023-05-25T07:51:44.838Z,98597.28
2023-05-25T07:54:14.023Z,98589.59
2023-05-25T07:56:43.177Z,98593.59
2023-05-25T07:59:12.708Z,98592.31
2023-05-25T08:01:41.867Z,98584.13
2023-05-25T08:04:11.160Z,98591.84
2023-05-25T08:06:40.321Z,98589.72
2023-05-25T08:09:09.500Z,98590.28
2023-05-25T08:11:40.108Z,98592.72
2023-05-25T08:14:09.213Z,98582.63
2023-05-25T08:16:38.382Z,98582.38
2023-05-25T08:19:07.557Z,98573.63
2023-05-25T08:21:37.723Z,98580.56
2023-05-25T08:24:08.472Z,98577.94
2023-05-25T08:26:53.039Z,98572.09
2023-05-25T08:29:23.733Z,98568.34
2023-05-25T08:31:52.916Z,98571.03
2023-05-25T08:34:22.100Z,98571.56
2023-05-25T08:36:51.214Z,98577.66
2023-05-25T08:39:20.355Z,98576.88
2023-05-25T08:41:50.493Z,98567.31
2023-05-25T08:44:19.680Z,98568.38
2023-05-25T08:46:49.789Z,98573.41
2023-05-25T08:49:19.015Z,98565.69
2023-05-25T08:51:53.570Z,98556.88
2023-05-25T08:54:30.242Z,98566.50
2023-05-25T08:57:08.164Z,98558.25
2023-05-25T08:59:47.680Z,98558.47
2023-05-25T09:02:34.887Z,98556.31
2023-05-25T09:05:04.778Z,98550.94
2023-05-25T09:07:34.976Z,98550.91
2023-05-25T09:10:05.180Z,98550.38
2023-05-25T09:12:36.263Z,98546.88
2023-05-25T09:15:06.266Z,98542.63
2023-05-25T09:17:38.093Z,98533.78
2023-05-25T09:20:10.526Z,98540.16
2023-05-25T09:22:41.347Z,98532.09
2023-05-25T09:25:11.580Z,98539.50
2023-05-25T09:27:42.092Z,98533.88
2023-05-25T09:30:12.232Z,98528.28
2023-05-25T09:32:42.042Z,98528.75
2023-05-25T09:35:13.159Z,98533.22
2023-05-25T09:37:43.819Z,98533.44
2023-05-25T09:40:15.351Z,98530.69
2023-05-25T09:42:45.311Z,98529.06
2023-05-25T09:45:14.424Z,98529.56
2023-05-25T09:47:43.791Z,98523.63
2023-05-25T09:50:13.022Z,98531.28
2023-05-25T09:52:42.390Z,98522.13
2023-05-25T09:55:12.665Z,98521.59
2023-05-25T09:57:43.342Z,98528.97
2023-05-25T10:00:13.061Z,98529.78
2023-05-25T10:02:43.326Z,98526.53
2023-05-25T10:05:12.618Z,98517.97
2023-05-25T10:07:42.986Z,98521.59
2023-05-25T10:10:18.387Z,98524.44
2023-05-25T10:12:52.844Z,98519.28
2023-05-25T10:15:22.938Z,98520.25
2023-05-25T10:17:56.468Z,98513.78
2023-05-25T10:20:28.293Z,98515.00
2023-05-25T10:23:08.586Z,98507.94
2023-05-25T10:25:45.235Z,98507.91
2023-05-25T10:28:22.874Z,98505.16
2023-05-25T10:30:53.642Z,98506.19
2023-05-25T10:33:23.069Z,98499.69
2023-05-25T10:36:03.098Z,98488.63
2023-05-25T10:38:40.659Z,98488.06
2023-05-25T10:41:11.359Z,98489.56
2023-05-25T10:43:41.304Z,98489.78
2023-05-25T10:46:10.959Z,98489.44
2023-05-25T10:48:46.250Z,98481.34
2023-05-25T10:51:15.777Z,98478.59
2023-05-25T10:53:46.500Z,98482.78
2023-05-25T10:56:15.990Z,98481.59
2023-05-25T10:58:46.560Z,98480.44
2023-05-25T11:01:16.349Z,98478.19
2023-05-25T11:04:11.271Z,98475.63
2023-05-25T11:06:40.593Z,98470.59
2023-05-25T11:09:24.736Z,98475.59
2023-05-25T11:11:55.662Z,98466.97
2023-05-25T11:14:30.135Z,98470.94
2023-05-25T11:17:12.183Z,98465.19
2023-05-25T11:19:41.326Z,98459.78
2023-05-25T11:22:20.559Z,98465.53
2023-05-25T11:24:51.065Z,98459.75
2023-05-25T11:27:24.626Z,98462.03
2023-05-25T11:29:56.547Z,98453.81
2023-05-25T11:32:26.990Z,98457.38
2023-05-25T11:34:58.525Z,98456.00
2023-05-25T11:37:33.648Z,98457.66
2023-05-25T11:40:07.145Z,98445.06
2023-05-25T11:42:38.330Z,98445.06
2023-05-25T11:45:11.585Z,98442.91
2023-05-25T11:47:41.389Z,98443.06
2023-05-25T11:50:17.347Z,98436.56
2023-05-25T11:52:46.529Z,98435.66
2023-05-25T11:55:15.805Z,98437.31
2023-05-25T11:57:45.206Z,98436.72
2023-05-25T12:00:25.184Z,98422.72
2023-05-25T12:02:56.360Z,98425.28
2023-05-25T12:05:25.885Z,98424.06
2023-05-25T12:07:55.066Z,98416.41
2023-05-25T12:10:24.224Z,98407.47
2023-05-25T12:12:58.229Z,98408.44
2023-05-25T12:15:30.728Z,98403.56
2023-05-25T12:18:00.199Z,98395.38
2023-05-25T12:20:29.442Z,98402.22
2023-05-25T12:22:58.681Z,98393.88
2023-05-25T12:25:38.588Z,98398.53
2023-05-25T12:28:16.289Z,98393.28
2023-05-25T12:30:45.903Z,98383.16
2023-05-25T12:33:15.718Z,98377.78
2023-05-25T12:35:49.742Z,98377.63
2023-05-25T12:38:21.601Z,98369.38
2023-05-25T12:41:07.397Z,98381.06
2023-05-25T12:43:43.029Z,98385.00
2023-05-25T12:46:23.602Z,98378.47
2023-05-25T12:48:52.853Z,98365.47
2023-05-25T12:51:22.028Z,98360.22
2023-05-25T12:53:51.807Z,98356.66
2023-05-25T12:56:22.591Z,98361.34
2023-05-25T12:58:51.797Z,98357.94
2023-05-25T13:01:21.047Z,98345.00
2023-05-25T13:03:50.226Z,98348.91
2023-05-25T13:06:19.405Z,98341.53
2023-05-25T13:08:49.267Z,98331.00
2023-05-25T13:11:18.366Z,98325.44
2023-05-25T13:13:47.483Z,98325.72
2023-05-25T13:16:16.676Z,98323.31
2023-05-25T13:18:45.855Z,98329.50
2023-05-25T13:21:15.025Z,98334.44
2023-05-25T13:23:44.398Z,98338.00
2023-05-25T13:26:13.507Z,98335.50
2023-05-25T13:28:42.677Z,98335.75
2023-05-25T13:31:11.877Z,98333.63
2023-05-25T13:33:41.035Z,98327.97
2023-05-25T13:36:10.304Z,98329.06
2023-05-25T13:38:39.394Z,98325.81
2023-05-25T13:41:08.785Z,98322.47
2023-05-25T13:43:38.637Z,98329.72
2023-05-25T13:46:11.557Z,98319.25
2023-05-25T13:48:48.409Z,98320.78
2023-05-25T13:51:18.438Z,98315.94
2023-05-25T13:53:49.016Z,98322.81
2023-05-25T13:56:18.169Z,98315.94
2023-05-25T13:58:47.316Z,98318.25
2023-05-25T14:01:16.560Z,98333.50
2023-05-25T14:03:46.523Z,98325.91
2023-05-25T14:06:15.905Z,98335.50
2023-05-25T14:08:44.997Z,98336.94
2023-05-25T14:11:14.104Z,98339.59
2023-05-25T14:13:43.205Z,98329.56
2023-05-25T14:16:12.396Z,98330.94
2023-05-25T14:18:41.652Z,98311.63
2023-05-25T14:21:13.032Z,98312.28
2023-05-25T14:23:42.193Z,98316.22
2023-05-25T14:26:11.369Z,98312.69
2023-05-25T14:28:40.661Z,98321.53
2023-05-25T14:31:10.167Z,98315.16
2023-05-25T14:33:40.757Z,98320.19
2023-05-25T14:36:11.587Z,98312.63
2023-05-25T14:38:40.775Z,98326.28
2023-05-25T14:41:09.844Z,98325.44
2023-05-25T14:43:38.941Z,98325.53
2023-05-25T14:46:08.787Z,98331.47
2023-05-25T14:48:37.936Z,98337.69
2023-05-25T14:51:07.128Z,98358.13
2023-05-25T14:53:36.328Z,98376.81
2023-05-25T14:56:05.775Z,98381.69
2023-05-25T14:58:35.116Z,98404.28
2023-05-25T15:01:05.104Z,98429.38
2023-05-25T15:03:34.439Z,98431.75
2023-05-25T15:06:03.709Z,98449.50
2023-05-25T15:08:32.869Z,98459.97
2023-05-25T15:11:01.931Z,98464.72
2023-05-25T15:13:31.173Z,98470.50
2023-05-25T15:16:00.510Z,98465.34
2023-05-25T15:18:29.668Z,98477.19
2023-05-25T15:20:59.310Z,98482.84
2023-05-25T15:23:28.575Z,98490.09
2023-05-25T15:25:57.750Z,98487.75
2023-05-25T15:28:27.001Z,98475.47
2023-05-25T15:30:56.306Z,98484.69
2023-05-25T15:33:35.719Z,98466.56
2023-05-25T15:36:13.255Z,98458.09
2023-05-25T15:38:48.917Z,98468.53
2023-05-25T15:41:18.605Z,98468.97
2023-05-25T15:43:54.604Z,98474.19
2023-05-25T15:46:24.740Z,98468.72
2023-05-25T15:48:54.339Z,98470.84
2023-05-25T15:51:23.481Z,98466.16
2023-05-25T15:53:54.776Z,98457.06
2023-05-25T15:56:24.083Z,98461.81
2023-05-25T15:58:53.417Z,98448.59
2023-05-25T16:01:22.674Z,98433.59
2023-05-25T16:03:51.856Z,98422.75
2023-05-25T16:06:21.029Z,98411.84
2023-05-25T16:08:50.224Z,98393.53
2023-05-25T16:11:19.583Z,98400.47
2023-05-25T16:13:48.747Z,98398.13
2023-05-25T16:16:19.360Z,98394.91
2023-05-25T16:18:48.593Z,98401.16
2023-05-25T16:21:17.740Z,98404.22
2023-05-25T16:23:46.918Z,98405.19
2023-05-25T16:26:16.336Z,98401.53
2023-05-25T16:28:45.645Z,98399.84
2023-05-25T16:31:15.824Z,98403.63
2023-05-25T16:33:46.312Z,98410.22
2023-05-25T16:36:15.634Z,98411.22
2023-05-25T16:38:44.935Z,98408.81
2023-05-25T16:41:14.109Z,98393.41
2023-05-25T16:43:43.349Z,98402.34
2023-05-25T16:46:12.578Z,98408.53
2023-05-25T16:48:41.704Z,98411.56
2023-05-25T16:51:15.187Z,98430.88
2023-05-25T16:53:45.295Z,98430.16
2023-05-25T16:56:15.213Z,98441.25
2023-05-25T16:58:44.439Z,98436.91
2023-05-25T17:01:13.560Z,98438.22
2023-05-25T17:03:42.942Z,98440.94
2023-05-25T17:06:12.140Z,98448.38
2023-05-25T17:08:41.187Z,98445.66
2023-05-25T17:11:10.790Z,98449.03
2023-05-25T17:13:39.942Z,98448.25
2023-05-25T17:16:10.098Z,98452.63
2023-05-25T17:18:39.317Z,98445.75
2023-05-25T17:21:08.398Z,98452.09
2023-05-25T17:23:37.516Z,98453.44
2023-05-25T17:26:06.596Z,98455.44
2023-05-25T17:28:36.044Z,98449.38
2023-05-25T17:31:05.437Z,98448.50
2023-05-25T17:33:34.568Z,98448.75
2023-05-25T17:36:03.833Z,98451.09
2023-05-25T17:38:35.083Z,98447.78
2023-05-25T17:41:04.388Z,98455.38
2023-05-25T17:43:33.464Z,98456.25
2023-05-25T17:46:02.725Z,98454.22
2023-05-25T17:48:31.885Z,98458.22
2023-05-25T17:51:01.054Z,98461.22
2023-05-25T17:53:30.199Z,98458.88
2023-05-25T17:55:59.361Z,98469.25
2023-05-25T17:58:28.493Z,98460.72
2023-05-25T18:00:57.665Z,98467.88
2023-05-25T18:03:26.996Z,98475.53
2023-05-25T18:05:56.133Z,98473.13
2023-05-25T18:08:25.375Z,98468.81
2023-05-25T18:10:54.497Z,98478.25
2023-05-25T18:13:23.739Z,98473.16
2023-05-25T18:15:52.983Z,98470.94
2023-05-25T18:18:24.769Z,98474.56
2023-05-25T18:20:54.000Z,98476.88
2023-05-25T18:23:23.371Z,98476.19
2023-05-25T18:25:52.798Z,98477.41
2023-05-25T18:28:23.504Z,98479.44
2023-05-25T18:30:52.632Z,98479.03
2023-05-25T18:33:21.822Z,98487.44
2023-05-25T18:35:50.902Z,98477.00
2023-05-25T18:38:20.044Z,98486.69
2023-05-25T18:40:49.171Z,98485.75
2023-05-25T18:43:18.308Z,98488.03
2023-05-25T18:45:47.681Z,98494.25
2023-05-25T18:48:19.042Z,98489.34
2023-05-25T18:50:48.423Z,98492.66
2023-05-25T18:53:17.605Z,98502.63
2023-05-25T18:55:47.023Z,98507.81
2023-05-25T18:58:16.296Z,98510.69
2023-05-25T19:00:45.561Z,98511.13
2023-05-25T19:03:14.973Z,98518.66
2023-05-25T19:05:44.390Z,98517.56
2023-05-25T19:08:13.620Z,98517.00
2023-05-25T19:10:42.812Z,98518.22
2023-05-25T19:13:11.961Z,98532.84
2023-05-25T19:15:41.059Z,98532.44
2023-05-25T19:18:10.384Z,98539.50
2023-05-25T19:20:39.579Z,98537.56
2023-05-25T19:23:08.900Z,98542.19
2023-05-25T19:25:38.491Z,98543.97
2023-05-25T19:28:07.583Z,98549.72
2023-05-25T19:30:36.840Z,98545.06
2023-05-25T19:33:06.053Z,98544.25
2023-05-25T19:35:35.723Z,98546.00
2023-05-25T19:38:05.008Z,98560.41
2023-05-25T19:40:34.221Z,98561.09
2023-05-25T19:43:03.337Z,98564.34
2023-05-25T19:45:32.572Z,98558.75
2023-05-25T19:48:02.042Z,98561.63
2023-05-25T19:50:31.693Z,98564.41
2023-05-25T19:53:01.288Z,98573.34
2023-05-25T19:55:30.939Z,98579.06
2023-05-25T19:58:00.128Z,98580.59
2023-05-25T20:00:29.450Z,98589.53
2023-05-25T20:02:58.785Z,98582.66
2023-05-25T20:05:28.126Z,98588.41
2023-05-25T20:07:57.383Z,98588.41
2023-05-25T20:10:26.545Z,98592.06
2023-05-25T20:12:55.772Z,98595.69
2023-05-25T20:15:24.889Z,98599.41
2023-05-25T20:17:54.026Z,98600.44
2023-05-25T20:20:23.203Z,98599.28
2023-05-25T20:22:52.335Z,98598.16
2023-05-25T20:25:21.485Z,98605.72
2023-05-25T20:27:50.592Z,98604.81
2023-05-25T20:30:19.832Z,98604.25
2023-05-25T20:32:49.319Z,98608.34
2023-05-25T20:35:18.621Z,98590.59
2023-05-25T20:37:47.871Z,98604.00
2023-05-25T20:40:17.116Z,98604.00
2023-05-25T20:42:47.103Z,98605.53
2023-05-25T20:45:16.283Z,98603.34
2023-05-25T20:47:45.629Z,98601.72
2023-05-25T20:50:14.797Z,98612.50
2023-05-25T20:52:43.911Z,98614.00
2023-05-25T20:55:13.081Z,98605.66
2023-05-25T20:57:42.142Z,98611.13
2023-05-25T21:00:12.047Z,98607.69
2023-05-25T21:02:41.416Z,98606.66
2023-05-25T21:05:11.043Z,98606.09
2023-05-25T21:07:40.143Z,98611.81
2023-05-25T21:10:09.571Z,98605.72
2023-05-25T21:12:38.764Z,98615.94
2023-05-25T21:15:08.713Z,98610.09
2023-05-25T21:17:37.863Z,98602.63
2023-05-25T21:20:07.543Z,98607.34
2023-05-25T21:22:37.398Z,98608.81
2023-05-25T21:25:06.988Z,98608.81
2023-05-25T21:27:36.137Z,98613.50
2023-05-25T21:30:06.064Z,98613.28
2023-05-25T21:32:35.932Z,98616.63
2023-05-25T21:35:05.238Z,98628.63
2023-05-25T21:37:34.900Z,98627.03
2023-05-25T21:40:04.340Z,98624.84
2023-05-25T21:42:33.469Z,98626.91
2023-05-25T21:45:03.488Z,98632.19
2023-05-25T21:47:33.703Z,98634.91
2023-05-25T21:50:03.052Z,98621.41
2023-05-25T21:52:32.565Z,98624.28
2023-05-25T21:55:01.868Z,98627.41
2023-05-25T21:57:32.595Z,98623.06
2023-05-25T22:00:02.060Z,98629.81
2023-05-25T22:02:42.023Z,98636.34
2023-05-25T22:05:11.756Z,98644.94
2023-05-25T22:07:41.814Z,98638.41
2023-05-25T22:10:11.434Z,98641.16
2023-05-25T22:12:40.660Z,98638.06
2023-05-25T22:15:10.137Z,98644.47
2023-05-25T22:17:39.365Z,98636.91
2023-05-25T22:20:09.006Z,98640.91
2023-05-25T22:22:38.211Z,98637.72
2023-05-25T22:25:07.543Z,98636.91
2023-05-25T22:27:37.005Z,98643.66
2023-05-25T22:30:07.134Z,98637.34
2023-05-25T22:32:36.534Z,98644.13
2023-05-25T22:35:06.486Z,98642.44
2023-05-25T22:37:35.645Z,98644.50
2023-05-25T22:40:06.227Z,98650.44
2023-05-25T22:42:35.446Z,98640.59
2023-05-25T22:45:05.020Z,98652.75
2023-05-25T22:47:34.221Z,98647.69
2023-05-25T22:50:03.352Z,98644.25
2023-05-25T22:52:32.912Z,98638.28
2023-05-25T22:55:02.033Z,98639.09
2023-05-25T22:57:32.735Z,98626.97
2023-05-25T23:00:01.991Z,98637.03
2023-05-25T23:02:32.722Z,98628.09
2023-05-25T23:05:02.039Z,98640.94
2023-05-25T23:07:32.794Z,98631.75
2023-05-25T23:10:02.575Z,98636.09
2023-05-25T23:12:32.962Z,98634.94
2023-05-25T23:15:02.926Z,98634.03
2023-05-25T23:17:33.129Z,98635.16
2023-05-25T23:20:02.389Z,98636.91
2023-05-25T23:22:32.271Z,98641.50
2023-05-25T23:25:01.618Z,98633.34
2023-05-25T23:27:31.844Z,98631.63
2023-05-25T23:30:02.970Z,98634.47
2023-05-25T23:32:33.059Z,98633.44
2023-05-25T23:35:02.334Z,98637.69
2023-05-25T23:37:32.864Z,98639.75
2023-05-25T23:40:02.075Z,98642.41
2023-05-25T23:42:37.828Z,98646.56
2023-05-25T23:45:08.275Z,98647.22
2023-05-25T23:47:37.387Z,98643.09
2023-05-25T23:50:06.864Z,98635.63
2023-05-25T23:52:36.062Z,98634.03
2023-05-25T23:55:06.497Z,98631.63
2023-05-25T23:57:36.650Z,98634.28
